createdAt,value
2022-08-12T00:00:35.344Z,5.75
2022-08-12T00:03:21.224Z,5.00
2022-08-12T00:06:07.250Z,5.00
2022-08-12T00:08:53.339Z,5.00
2022-08-12T00:11:40.228Z,4.75
2022-08-12T00:14:25.746Z,5.00
2022-08-12T00:17:11.225Z,5.00
2022-08-12T00:19:56.613Z,5.75
2022-08-12T00:22:41.681Z,5.25
2022-08-12T00:26:05.598Z,5.00
2022-08-12T00:28:34.486Z,5.00
2022-08-12T00:31:19.883Z,5.00
2022-08-12T00:34:05.542Z,5.00
2022-08-12T00:36:51.093Z,5.25
2022-08-12T00:39:36.551Z,5.00
2022-08-12T00:42:12.599Z,6.00
2022-08-12T00:44:43.405Z,5.00
2022-08-12T00:47:25.631Z,5.50
2022-08-12T00:49:54.384Z,4.25
2022-08-12T00:52:22.541Z,6.00
2022-08-12T00:54:51.490Z,5.00
2022-08-12T00:57:20.352Z,5.25
2022-08-12T00:59:52.785Z,5.00
2022-08-12T01:02:25.784Z,5.25
2022-08-12T01:05:12.568Z,5.50
2022-08-12T01:07:58.783Z,5.75
2022-08-12T01:10:44.657Z,5.00
2022-08-12T01:13:19.221Z,5.25
2022-08-12T01:15:50.458Z,6.00
2022-08-12T01:18:18.695Z,6.00
2022-08-12T01:20:51.046Z,6.00
2022-08-12T01:23:50.637Z,6.00
2022-08-12T01:26:21.005Z,6.50
2022-08-12T01:28:50.321Z,6.50
2022-08-12T01:31:19.425Z,7.00
2022-08-12T01:33:52.083Z,5.00
2022-08-12T01:36:20.369Z,7.50
2022-08-12T01:38:48.448Z,6.00
2022-08-12T01:41:16.588Z,6.00
2022-08-12T01:43:45.807Z,6.00
2022-08-12T01:46:17.920Z,6.75
2022-08-12T01:49:01.237Z,6.00
2022-08-12T01:52:21.311Z,6.00
2022-08-12T01:54:29.246Z,6.00
2022-08-12T01:56:59.672Z,6.50
2022-08-12T01:59:50.103Z,6.25
2022-08-12T02:02:19.729Z,6.00
2022-08-12T02:05:14.257Z,6.00
2022-08-12T02:08:02.925Z,7.00
2022-08-12T02:10:53.745Z,7.25
2022-08-12T02:13:48.435Z,7.00
2022-08-12T02:16:30.392Z,7.00
2022-08-12T02:19:22.002Z,7.00
2022-08-12T02:22:00.852Z,6.00
2022-08-12T02:24:33.352Z,8.25
2022-08-12T02:27:01.870Z,7.00
2022-08-12T02:29:29.690Z,8.00
2022-08-12T02:32:00.271Z,7.00
2022-08-12T02:34:28.402Z,7.75
2022-08-12T02:36:57.570Z,7.00
2022-08-12T02:39:33.790Z,7.00
2022-08-12T02:42:04.864Z,7.75
2022-08-12T02:44:37.068Z,7.00
2022-08-12T02:47:07.034Z,7.75
2022-08-12T02:49:48.262Z,8.00
2022-08-12T02:52:17.844Z,7.00
2022-08-12T02:54:45.661Z,6.75
2022-08-12T02:57:14.432Z,7.00
2022-08-12T02:59:42.219Z,6.75
2022-08-12T03:02:12.378Z,7.00
2022-08-12T03:04:44.847Z,7.50
2022-08-12T03:07:14.794Z,8.25
2022-08-12T03:10:04.267Z,6.50
2022-08-12T03:12:36.015Z,7.00
2022-08-12T03:15:12.919Z,7.00
2022-08-12T03:18:24.480Z,7.00
2022-08-12T03:20:42.730Z,7.00
2022-08-12T03:23:11.640Z,8.50
2022-08-12T03:25:49.392Z,8.00
2022-08-12T03:28:37.550Z,8.00
2022-08-12T03:31:06.684Z,7.50
2022-08-12T03:33:37.424Z,9.25
2022-08-12T03:36:06.978Z,7.25
2022-08-12T03:38:37.212Z,8.00
2022-08-12T03:41:24.202Z,7.00
2022-08-12T03:44:17.558Z,7.75
2022-08-12T03:47:04.121Z,7.75
2022-08-12T03:49:51.178Z,7.00
2022-08-12T03:52:36.190Z,7.75
2022-08-12T03:55:21.819Z,8.00
2022-08-12T03:58:08.086Z,8.00
2022-08-12T04:00:36.791Z,7.25
2022-08-12T04:03:25.438Z,9.00
2022-08-12T04:05:56.763Z,7.00
2022-08-12T04:08:26.236Z,9.00
2022-08-12T04:11:12.053Z,8.00
2022-08-12T04:13:40.786Z,7.75
2022-08-12T04:16:10.389Z,7.50
2022-08-12T04:18:38.729Z,8.75
2022-08-12T04:21:10.046Z,8.00
2022-08-12T04:23:39.251Z,8.00
2022-08-12T04:26:07.055Z,9.00
2022-08-12T04:28:34.970Z,8.50
2022-08-12T04:31:04.715Z,6.75
2022-08-12T04:33:32.613Z,8.00
2022-08-12T04:36:00.544Z,8.00
2022-08-12T04:38:29.663Z,8.00
2022-08-12T04:40:57.917Z,7.50
2022-08-12T04:44:01.135Z,8.00
2022-08-12T04:46:13.657Z,8.00
2022-08-12T04:48:41.452Z,7.00
2022-08-12T04:51:09.564Z,8.75
2022-08-12T04:53:38.714Z,8.00
2022-08-12T04:56:06.971Z,8.25
2022-08-12T04:58:36.801Z,7.25
2022-08-12T05:01:04.905Z,8.00
2022-08-12T05:03:45.867Z,8.00
2022-08-12T05:06:26.449Z,8.50
2022-08-12T05:08:57.576Z,8.00
2022-08-12T05:11:25.858Z,8.00
2022-08-12T05:13:57.517Z,8.75
2022-08-12T05:16:27.232Z,7.75
2022-08-12T05:18:59.643Z,8.00
2022-08-12T05:21:27.401Z,9.00
2022-08-12T05:23:56.590Z,9.00
2022-08-12T05:26:25.037Z,10.00
2022-08-12T05:28:54.187Z,8.75
2022-08-12T05:31:42.544Z,8.50
2022-08-12T05:34:10.307Z,8.00
2022-08-12T05:36:38.932Z,8.00
2022-08-12T05:39:08.406Z,9.00
2022-08-12T05:41:37.942Z,8.25
2022-08-12T05:44:06.524Z,7.25
2022-08-12T05:46:34.595Z,9.00
2022-08-12T05:49:02.432Z,8.50
2022-08-12T05:51:39.931Z,9.00
2022-08-12T05:54:10.898Z,9.00
2022-08-12T05:56:39.351Z,8.00
2022-08-12T05:59:07.657Z,9.00
2022-08-12T06:02:09.139Z,9.25
2022-08-12T06:04:24.034Z,8.25
2022-08-12T06:06:53.527Z,9.75
2022-08-12T06:09:23.457Z,9.00
2022-08-12T06:12:05.020Z,7.75
2022-08-12T06:14:36.421Z,9.00
2022-08-12T06:17:05.074Z,7.00
2022-08-12T06:20:22.848Z,8.00
2022-08-12T06:22:20.784Z,8.50
2022-08-12T06:24:50.040Z,8.00
2022-08-12T06:27:18.906Z,8.00
2022-08-12T06:30:08.283Z,8.50
2022-08-12T06:32:35.480Z,8.25
2022-08-12T06:35:25.074Z,8.50
2022-08-12T06:37:56.371Z,8.00
2022-08-12T06:40:40.363Z,9.00
2022-08-12T06:43:08.222Z,7.75
2022-08-12T06:45:45.662Z,8.00
2022-08-12T06:48:14.283Z,8.00
2022-08-12T06:50:44.510Z,8.00
2022-08-12T06:53:12.406Z,8.75
2022-08-12T06:55:58.370Z,8.25
2022-08-12T06:58:26.491Z,8.00
2022-08-12T07:00:55.930Z,7.00
2022-08-12T07:03:27.737Z,9.00
2022-08-12T07:05:56.364Z,7.00
2022-08-12T07:08:25.561Z,8.00
2022-08-12T07:10:59.129Z,8.00
2022-08-12T07:13:28.199Z,8.00
2022-08-12T07:15:56.869Z,7.75
2022-08-12T07:18:27.441Z,7.00
2022-08-12T07:20:56.246Z,6.50
2022-08-12T07:23:24.444Z,8.25
2022-08-12T07:25:56.442Z,7.75
2022-08-12T07:28:29.390Z,6.25
2022-08-12T07:30:57.937Z,9.00
2022-08-12T07:33:28.049Z,9.00
2022-08-12T07:35:56.604Z,8.00
2022-08-12T07:38:29.250Z,7.50
2022-08-12T07:41:02.061Z,7.00
2022-08-12T07:43:32.016Z,7.75
2022-08-12T07:46:00.274Z,8.00
2022-08-12T07:48:28.499Z,7.00
2022-08-12T07:50:56.689Z,8.00
2022-08-12T07:53:24.585Z,8.75
2022-08-12T07:55:52.351Z,8.25
2022-08-12T07:58:20.205Z,8.00
2022-08-12T08:00:50.050Z,7.75
2022-08-12T08:03:17.868Z,7.00
2022-08-12T08:05:46.551Z,6.00
2022-08-12T08:08:15.357Z,8.00
2022-08-12T08:10:43.475Z,8.00
2022-08-12T08:13:11.916Z,7.00
2022-08-12T08:16:01.887Z,7.50
2022-08-12T08:18:28.957Z,7.00
2022-08-12T08:20:57.308Z,8.00
2022-08-12T08:23:46.921Z,7.00
2022-08-12T08:26:24.806Z,7.00
2022-08-12T08:28:53.104Z,7.00
2022-08-12T08:31:21.606Z,7.00
2022-08-12T08:34:04.812Z,7.50
2022-08-12T08:36:38.567Z,7.50
2022-08-12T08:39:06.428Z,6.00
2022-08-12T08:42:19.188Z,7.25
2022-08-12T08:44:39.672Z,7.00
2022-08-12T08:47:07.664Z,7.00
2022-08-12T08:49:37.078Z,7.00
2022-08-12T08:52:06.156Z,6.00
2022-08-12T08:54:34.398Z,7.00
2022-08-12T08:57:02.271Z,7.75
2022-08-12T08:59:30.076Z,6.75
2022-08-12T09:01:58.271Z,7.00
2022-08-12T09:05:12.892Z,7.00
2022-08-12T09:10:31.357Z,7.00
2022-08-12T09:13:22.920Z,8.00
2022-08-12T09:15:55.848Z,6.50
2022-08-12T09:18:26.642Z,7.00
2022-08-12T09:21:02.285Z,6.25
2022-08-12T09:23:57.191Z,5.50
2022-08-12T09:26:22.817Z,6.25
2022-08-12T09:28:56.372Z,7.00
2022-08-12T09:32:07.182Z,7.00
2022-08-12T09:34:25.722Z,6.75
2022-08-12T09:37:01.641Z,6.25
2022-08-12T09:40:01.396Z,6.00
2022-08-12T09:42:44.018Z,6.50
2022-08-12T09:46:06.165Z,7.00
2022-08-12T09:48:19.984Z,5.75
2022-08-12T09:50:51.617Z,6.00
2022-08-12T09:53:29.402Z,6.50
2022-08-12T09:57:00.811Z,5.75
2022-08-12T09:58:59.696Z,6.00
2022-08-12T10:01:35.469Z,6.75
2022-08-12T10:04:19.924Z,6.00
2022-08-12T10:06:55.330Z,6.75
2022-08-12T10:09:28.482Z,6.00
2022-08-12T10:12:33.343Z,6.00
2022-08-12T10:15:01.643Z,6.00
2022-08-12T10:17:29.615Z,6.50
2022-08-12T10:19:59.523Z,4.75
2022-08-12T10:22:39.103Z,6.00
2022-08-12T10:26:35.118Z,6.00
2022-08-12T10:28:34.289Z,6.00
2022-08-12T10:31:05.080Z,6.00
2022-08-12T10:33:33.608Z,6.00
2022-08-12T10:36:12.490Z,6.25
2022-08-12T10:38:43.859Z,5.00
2022-08-12T10:41:58.656Z,5.25
2022-08-12T10:44:19.119Z,5.75
2022-08-12T10:46:49.156Z,7.00
2022-08-12T10:50:02.762Z,6.00
2022-08-12T10:52:34.725Z,7.00
2022-08-12T10:54:55.891Z,6.75
2022-08-12T10:58:14.199Z,6.00
2022-08-12T11:00:34.945Z,5.50
2022-08-12T11:04:22.745Z,6.50
2022-08-12T11:07:09.935Z,7.00
2022-08-12T11:08:43.379Z,6.50
2022-08-12T11:12:07.626Z,6.00
2022-08-12T11:14:05.716Z,6.00
2022-08-12T11:16:35.462Z,6.00
2022-08-12T11:19:05.614Z,6.00
2022-08-12T11:21:56.791Z,5.25
2022-08-12T11:24:31.993Z,5.25
2022-08-12T11:27:07.317Z,5.00
2022-08-12T11:30:05.346Z,6.00
2022-08-12T11:32:25.376Z,5.00
2022-08-12T11:34:54.993Z,6.00
2022-08-12T11:37:25.952Z,5.50
2022-08-12T11:42:35.951Z,5.25
2022-08-12T11:45:16.599Z,5.00
2022-08-12T11:47:46.269Z,6.00
2022-08-12T11:50:19.155Z,6.00
2022-08-12T11:52:56.826Z,6.00
2022-08-12T11:55:25.074Z,6.00
2022-08-12T11:58:39.396Z,5.00
2022-08-12T12:03:41.568Z,5.00
2022-08-12T12:06:16.390Z,5.00
2022-08-12T12:08:50.917Z,5.00
2022-08-12T12:11:21.203Z,5.00
2022-08-12T12:14:07.814Z,4.75
2022-08-12T12:16:38.056Z,5.50
2022-08-12T12:19:10.069Z,5.00
2022-08-12T12:21:47.058Z,5.00
2022-08-12T12:24:21.966Z,5.00
2022-08-12T12:27:00.345Z,6.00
2022-08-12T12:30:19.077Z,4.25
2022-08-12T12:32:18.490Z,5.00
2022-08-12T12:35:13.848Z,5.75
2022-08-12T12:38:03.469Z,4.00
2022-08-12T12:40:29.848Z,5.00
2022-08-12T12:43:03.026Z,4.75
2022-08-12T12:45:33.593Z,6.00
2022-08-12T12:48:02.411Z,5.25
2022-08-12T12:50:35.906Z,5.00
2022-08-12T12:54:05.238Z,5.00
2022-08-12T12:56:06.861Z,4.00
2022-08-12T12:58:34.697Z,6.00
2022-08-12T13:01:04.836Z,5.00
2022-08-12T13:03:54.199Z,5.00
2022-08-12T13:06:30.199Z,5.00
2022-08-12T13:09:02.686Z,5.00
2022-08-12T13:11:41.195Z,4.00
2022-08-12T13:14:13.040Z,5.00
2022-08-12T13:16:57.510Z,4.00
2022-08-12T13:19:37.771Z,5.00
2022-08-12T13:22:21.097Z,5.00
2022-08-12T13:24:55.049Z,5.00
2022-08-12T13:27:35.077Z,4.00
2022-08-12T13:30:06.818Z,5.00
2022-08-12T13:32:38.552Z,4.75
2022-08-12T13:35:20.024Z,4.50
2022-08-12T13:37:57.122Z,4.75
2022-08-12T13:40:25.975Z,5.00
2022-08-12T13:42:57.883Z,5.00
2022-08-12T13:45:26.149Z,4.25
2022-08-12T13:47:56.448Z,5.00
2022-08-12T13:50:26.715Z,5.50
2022-08-12T13:52:56.055Z,6.00
2022-08-12T13:55:30.905Z,5.00
2022-08-12T13:58:00.001Z,4.50
2022-08-12T14:00:38.415Z,5.75
2022-08-12T14:03:07.488Z,6.00
2022-08-12T14:05:38.871Z,5.00
2022-08-12T14:08:10.979Z,7.00
2022-08-12T14:10:50.911Z,5.25
2022-08-12T14:14:03.596Z,6.00
2022-08-12T14:16:10.978Z,6.00
2022-08-12T14:18:44.817Z,6.75
2022-08-12T14:21:22.268Z,5.75
2022-08-12T14:24:05.336Z,6.00
2022-08-12T14:26:39.049Z,6.00
2022-08-12T14:29:07.043Z,5.00
2022-08-12T14:31:40.696Z,6.00
2022-08-12T14:34:11.401Z,6.50
2022-08-12T14:36:42.396Z,6.75
2022-08-12T14:39:12.264Z,6.00
2022-08-12T14:41:48.453Z,7.00
2022-08-12T14:44:58.999Z,6.00
2022-08-12T14:47:13.377Z,5.25
2022-08-12T14:50:41.647Z,6.00
2022-08-12T14:53:03.409Z,5.00
2022-08-12T14:58:08.873Z,6.50
2022-08-12T15:00:54.329Z,5.50
2022-08-12T15:03:25.836Z,5.00
2022-08-12T15:06:39.223Z,6.00
2022-08-12T15:09:07.590Z,6.00
2022-08-12T15:11:48.733Z,5.00
2022-08-12T15:14:25.604Z,6.00
2022-08-12T15:16:54.018Z,5.00
2022-08-12T15:20:28.647Z,7.00
2022-08-12T15:22:37.684Z,5.25
2022-08-12T15:25:00.432Z,6.25
2022-08-12T15:27:31.674Z,5.00
2022-08-12T15:29:59.872Z,6.00
2022-08-12T15:32:32.452Z,6.50
2022-08-12T15:35:01.449Z,6.00
2022-08-12T15:37:59.052Z,5.25
2022-08-12T15:40:29.787Z,5.00
2022-08-12T15:43:01.109Z,6.00
2022-08-12T15:45:32.132Z,5.00
2022-08-12T15:48:16.460Z,5.00
2022-08-12T15:50:46.210Z,5.00
2022-08-12T15:53:15.622Z,5.25
2022-08-12T15:55:45.618Z,5.00
2022-08-12T15:58:16.657Z,5.00
2022-08-12T16:00:45.392Z,6.00
2022-08-12T16:03:19.293Z,5.00
2022-08-12T16:06:12.888Z,6.00
2022-08-12T16:08:42.453Z,5.00
2022-08-12T16:11:15.668Z,6.00
2022-08-12T16:13:48.039Z,4.50
2022-08-12T16:16:23.654Z,4.00
2022-08-12T16:18:56.179Z,6.00
2022-08-12T16:21:52.909Z,5.75
2022-08-12T16:24:12.815Z,5.25
2022-08-12T16:26:42.364Z,4.00
2022-08-12T16:29:16.223Z,5.25
2022-08-12T16:31:45.140Z,5.75
2022-08-12T16:34:25.850Z,4.75
2022-08-12T16:37:04.516Z,4.50
2022-08-12T16:40:00.665Z,4.00
2022-08-12T16:42:28.318Z,5.00
2022-08-12T16:44:59.445Z,5.75
2022-08-12T16:47:27.667Z,5.25
2022-08-12T16:49:57.819Z,5.25
2022-08-12T16:52:25.647Z,5.00
2022-08-12T16:54:54.967Z,5.00
2022-08-12T16:57:34.925Z,4.00
2022-08-12T17:00:07.880Z,5.00
2022-08-12T17:02:37.812Z,5.00
2022-08-12T17:05:14.932Z,5.00
2022-08-12T17:07:47.241Z,4.00
2022-08-12T17:10:35.958Z,4.00
2022-08-12T17:13:10.178Z,4.00
2022-08-12T17:15:57.411Z,5.00
2022-08-12T17:18:42.825Z,4.00
2022-08-12T17:21:19.897Z,4.75
2022-08-12T17:23:53.930Z,4.50
2022-08-12T17:26:22.554Z,4.50
2022-08-12T17:28:56.283Z,4.00
2022-08-12T17:31:59.740Z,5.50
2022-08-12T17:34:33.659Z,5.25
2022-08-12T17:37:05.493Z,4.00
2022-08-12T17:40:15.395Z,4.00
2022-08-12T17:42:33.040Z,4.00
2022-08-12T17:45:18.081Z,3.25
2022-08-12T17:48:05.194Z,4.00
2022-08-12T17:50:35.888Z,4.00
2022-08-12T17:53:03.995Z,5.00
2022-08-12T17:55:43.858Z,4.00
2022-08-12T17:58:15.437Z,4.00
2022-08-12T18:00:45.421Z,4.25
2022-08-12T18:04:04.731Z,4.75
2022-08-12T18:06:13.780Z,4.25
2022-08-12T18:08:43.443Z,4.75
2022-08-12T18:12:04.697Z,4.00
2022-08-12T18:14:27.833Z,4.00
2022-08-12T18:16:56.970Z,4.00
2022-08-12T18:19:26.413Z,5.00
2022-08-12T18:22:03.126Z,4.00
2022-08-12T18:24:30.965Z,4.00
2022-08-12T18:26:58.753Z,4.75
2022-08-12T18:29:27.143Z,4.00
2022-08-12T18:32:35.178Z,5.00
2022-08-12T18:35:10.601Z,3.00
2022-08-12T18:37:42.184Z,3.75
2022-08-12T18:40:29.036Z,3.00
2022-08-12T18:42:59.246Z,4.50
2022-08-12T18:45:31.484Z,4.00
2022-08-12T18:48:14.918Z,4.00
2022-08-12T18:50:49.553Z,4.25
2022-08-12T18:54:06.681Z,4.00
2022-08-12T18:56:07.319Z,4.00
2022-08-12T18:58:59.980Z,4.00
2022-08-12T19:02:19.368Z,3.75
2022-08-12T19:04:18.105Z,4.00
2022-08-12T19:06:47.401Z,4.00
2022-08-12T19:09:16.297Z,4.00
2022-08-12T19:12:02.906Z,3.25
2022-08-12T19:14:32.818Z,3.50
2022-08-12T19:17:04.841Z,4.00
2022-08-12T19:19:41.620Z,4.25
2022-08-12T19:22:11.728Z,4.00
2022-08-12T19:25:14.329Z,4.00
2022-08-12T19:27:50.695Z,3.00
2022-08-12T19:30:37.943Z,4.00
2022-08-12T19:33:07.862Z,3.50
2022-08-12T19:36:24.035Z,3.75
2022-08-12T19:38:27.202Z,3.25
2022-08-12T19:40:55.311Z,3.75
2022-08-12T19:43:26.549Z,4.00
2022-08-12T19:46:15.120Z,4.00
2022-08-12T19:48:58.763Z,4.50
2022-08-12T19:51:33.877Z,4.00
2022-08-12T19:54:05.624Z,3.00
2022-08-12T19:56:35.053Z,4.00
2022-08-12T19:59:19.121Z,3.50
2022-08-12T20:02:02.597Z,4.00
2022-08-12T20:04:37.449Z,3.00
2022-08-12T20:07:05.894Z,4.00
2022-08-12T20:09:39.858Z,4.00
2022-08-12T20:12:11.564Z,3.00
2022-08-12T20:14:45.102Z,3.00
2022-08-12T20:17:14.372Z,3.00
2022-08-12T20:20:05.647Z,4.00
2022-08-12T20:22:33.489Z,4.00
2022-08-12T20:25:07.334Z,3.00
2022-08-12T20:28:04.853Z,4.00
2022-08-12T20:30:52.641Z,3.25
2022-08-12T20:33:19.042Z,4.00
2022-08-12T20:36:13.862Z,4.00
2022-08-12T20:38:39.768Z,4.00
2022-08-12T20:41:17.468Z,3.00
2022-08-12T20:43:49.336Z,4.00
2022-08-12T20:46:17.743Z,3.50
2022-08-12T20:48:54.815Z,3.00
2022-08-12T20:51:27.421Z,3.00
2022-08-12T20:53:58.789Z,4.00
2022-08-12T20:56:34.466Z,3.00
2022-08-12T20:59:04.626Z,4.00
2022-08-12T21:01:47.149Z,3.25
2022-08-12T21:04:33.546Z,3.00
2022-08-12T21:07:08.751Z,3.75
2022-08-12T21:09:40.671Z,3.50
2022-08-12T21:12:24.715Z,3.25
2022-08-12T21:15:23.515Z,4.00
2022-08-12T21:18:08.767Z,2.25
2022-08-12T21:20:39.015Z,4.00
2022-08-12T21:23:08.836Z,3.00
2022-08-12T21:25:45.075Z,4.00
2022-08-12T21:28:15.137Z,3.00
2022-08-12T21:31:11.204Z,3.00
2022-08-12T21:33:32.144Z,3.00
2022-08-12T21:36:22.716Z,4.00
2022-08-12T21:39:02.056Z,4.00
2022-08-12T21:41:50.228Z,3.50
2022-08-12T21:44:23.941Z,3.50
2022-08-12T21:47:19.548Z,4.00
2022-08-12T21:49:55.454Z,3.75
2022-08-12T21:52:34.079Z,3.00
2022-08-12T21:55:03.225Z,3.25
2022-08-12T21:57:36.524Z,4.00
2022-08-12T22:00:19.822Z,3.50
2022-08-12T22:03:05.328Z,4.00
2022-08-12T22:05:50.473Z,3.00
2022-08-12T22:08:25.554Z,3.00
2022-08-12T22:10:56.590Z,3.25
2022-08-12T22:14:04.100Z,3.25
2022-08-12T22:16:14.550Z,3.25
2022-08-12T22:18:44.433Z,4.00
2022-08-12T22:21:22.262Z,3.50
2022-08-12T22:24:04.993Z,3.25
2022-08-12T22:26:37.869Z,4.00
2022-08-12T22:29:23.616Z,4.00
2022-08-12T22:31:54.593Z,3.00
2022-08-12T22:34:29.292Z,3.00
2022-08-12T22:36:57.880Z,3.25
2022-08-12T22:39:26.503Z,4.00
2022-08-12T22:42:12.096Z,3.00
2022-08-12T22:44:57.293Z,4.00
2022-08-12T22:47:53.926Z,3.75
2022-08-12T22:50:27.522Z,3.00
2022-08-12T22:53:15.080Z,3.75
2022-08-12T22:55:58.990Z,3.75
2022-08-12T22:58:33.746Z,3.00
2022-08-12T23:01:03.573Z,3.00
2022-08-12T23:03:49.260Z,3.00
2022-08-12T23:06:19.919Z,3.00
2022-08-12T23:08:48.340Z,3.00
2022-08-12T23:11:17.878Z,3.00
2022-08-12T23:13:55.496Z,4.00
2022-08-12T23:16:31.663Z,3.00
2022-08-12T23:19:09.814Z,2.00
2022-08-12T23:22:05.678Z,3.00
2022-08-12T23:24:55.924Z,4.00
2022-08-12T23:27:50.183Z,3.00
2022-08-12T23:30:24.964Z,4.00
2022-08-12T23:32:59.918Z,3.75
2022-08-12T23:35:53.944Z,3.00
2022-08-12T23:38:30.646Z,3.75
2022-08-12T23:41:00.880Z,4.00
2022-08-12T23:43:38.415Z,3.00
2022-08-12T23:46:08.743Z,3.00
2022-08-12T23:48:37.748Z,3.75
2022-08-12T23:51:23.438Z,3.00
2022-08-12T23:53:56.306Z,3.50
2022-08-12T23:56:29.493Z,3.75
2022-08-12T23:58:57.467Z,3.00
